Bayamo, Cuba
Current Conditions -  °F | °C
As of 6:50 PM on Thursday 20 Nov 2014 (Local Time) from MUHG Reporting Station
Scattered Clouds Scattered Clouds  
Wind Chill: 81°   Ceiling: Unl
Heat Index: 84°   Visibility: 6mi
Dew Point: 70°   Wind: 10mph
Humidity: 70%   Direction: 80°E
Pressure: 29.94"   Gusts: NA
Location:  20.38°N, 76.65°W
Report Text: MUHG 202250Z 08009KT 9000 SCT020 27/21 Q1014
Loading
Personal Weather Stations






























Interactive Weather Map New forecast layout! Learn more

10-Day Weather Forecast

Advertisements
Track Severe Weather on mobile